EJU96UW LEPA-LSGG
Flight info
| Callsign | EJU96UW |
|---|---|
| Flight time | 1h 50m |
| Altitude | 30000 |
| Route | MEROS N853 LUMAS DCT MAXIR DCT LUSOL DCT BODRU DCT OKTET DCT IRMAR DCT KINES |
| Aircraft | A319/M-SDE2E3FGIJ1RWXYZ/LB1 |
Departure
| Time | 2026-05-05 09:32 |
|---|---|
| Airport | Palma de Mallorca Airport (LEPA) |
Arrival
| Time | 2026-05-05 11:22 |
|---|---|
| Airport | Geneva International Airport (LSGG) |
| Time | Latitude | Longitude | Altitude | Speed | Heading |
|---|---|---|---|---|---|
| 2026-05-05 09:18 | 39.55345 | 2.73091 | 30 ft | 0 kts | 175° |
| 2026-05-05 09:24 | 39.55343 | 2.73091 | 30 ft | 1 kts | 175° |
| 2026-05-05 09:24 | 39.55304 | 2.73094 | 30 ft | 9 kts | 182° |
| 2026-05-05 09:25 | 39.55293 | 2.73038 | 30 ft | 8 kts | 317° |
| 2026-05-05 09:25 | 39.55354 | 2.72989 | 30 ft | 12 kts | 329° |
| 2026-05-05 09:25 | 39.55423 | 2.73012 | 30 ft | 13 kts | 56° |
| 2026-05-05 09:25 | 39.55480 | 2.73128 | 30 ft | 18 kts | 58° |
| 2026-05-05 09:26 | 39.55548 | 2.73272 | 30 ft | 19 kts | 58° |
| 2026-05-05 09:26 | 39.55616 | 2.73415 | 30 ft | 19 kts | 58° |
| 2026-05-05 09:26 | 39.55685 | 2.73562 | 30 ft | 19 kts | 58° |
| 2026-05-05 09:26 | 39.55755 | 2.73711 | 30 ft | 19 kts | 58° |
| 2026-05-05 09:27 | 39.55823 | 2.73852 | 30 ft | 17 kts | 58° |
| 2026-05-05 09:27 | 39.55875 | 2.73960 | 30 ft | 10 kts | 59° |
| 2026-05-05 09:27 | 39.55904 | 2.74022 | 30 ft | 5 kts | 58° |
| 2026-05-05 09:27 | 39.55913 | 2.74042 | 30 ft | 0 kts | 58° |
| 2026-05-05 09:29 | 39.55930 | 2.74077 | 30 ft | 10 kts | 59° |
| 2026-05-05 09:29 | 39.55965 | 2.74153 | 30 ft | 9 kts | 58° |
| 2026-05-05 09:29 | 39.55994 | 2.74214 | 30 ft | 7 kts | 58° |
| 2026-05-05 09:30 | 39.56028 | 2.74288 | 30 ft | 16 kts | 59° |
| 2026-05-05 09:30 | 39.56089 | 2.74416 | 30 ft | 17 kts | 55° |
| 2026-05-05 09:30 | 39.56190 | 2.74433 | 30 ft | 16 kts | 330° |
| 2026-05-05 09:30 | 39.56255 | 2.74336 | 30 ft | 15 kts | 263° |
| 2026-05-05 09:31 | 39.56212 | 2.74228 | 30 ft | 11 kts | 238° |
| 2026-05-05 09:31 | 39.56202 | 2.74205 | 30 ft | 1 kts | 239° |
| 2026-05-05 09:31 | 39.56197 | 2.74195 | 30 ft | 2 kts | 239° |
| 2026-05-05 09:31 | 39.56156 | 2.74108 | 30 ft | 38 kts | 239° |
| 2026-05-05 09:32 | 39.55877 | 2.73521 | 30 ft | 111 kts | 238° |
| 2026-05-05 09:32 | 39.55368 | 2.72458 | 123 ft | 155 kts | 237° |
| 2026-05-05 09:32 | 39.54816 | 2.71289 | 798 ft | 153 kts | 239° |
| 2026-05-05 09:32 | 39.54256 | 2.70093 | 1477 ft | 162 kts | 236° |
| 2026-05-05 09:33 | 39.53631 | 2.68769 | 1892 ft | 184 kts | 237° |
| 2026-05-05 09:33 | 39.52917 | 2.67261 | 2250 ft | 209 kts | 236° |
| 2026-05-05 09:33 | 39.52148 | 2.65642 | 3080 ft | 211 kts | 236° |
| 2026-05-05 09:33 | 39.51373 | 2.64015 | 3949 ft | 215 kts | 237° |
| 2026-05-05 09:34 | 39.50588 | 2.62365 | 4781 ft | 220 kts | 237° |
| 2026-05-05 09:34 | 39.49643 | 2.60794 | 5608 ft | 225 kts | 219° |
| 2026-05-05 09:34 | 39.48281 | 2.59780 | 6474 ft | 228 kts | 207° |
| 2026-05-05 09:34 | 39.46768 | 2.59146 | 7309 ft | 233 kts | 185° |
| 2026-05-05 09:35 | 39.45152 | 2.59409 | 8185 ft | 236 kts | 168° |
| 2026-05-05 09:35 | 39.41942 | 2.60430 | 9976 ft | 240 kts | 168° |
| 2026-05-05 09:35 | 39.40313 | 2.60951 | 10741 ft | 246 kts | 169° |
| 2026-05-05 09:36 | 39.38576 | 2.61538 | 11112 ft | 271 kts | 165° |
| 2026-05-05 09:36 | 39.36775 | 2.62585 | 11430 ft | 298 kts | 153° |
| 2026-05-05 09:36 | 39.35039 | 2.64261 | 11744 ft | 326 kts | 140° |
| 2026-05-05 09:36 | 39.33380 | 2.66346 | 12353 ft | 337 kts | 140° |
| 2026-05-05 09:37 | 39.31673 | 2.68468 | 13088 ft | 344 kts | 140° |
| 2026-05-05 09:37 | 39.29928 | 2.70619 | 13823 ft | 350 kts | 141° |
| 2026-05-05 09:37 | 39.28192 | 2.72860 | 14470 ft | 359 kts | 134° |
| 2026-05-05 09:37 | 39.27031 | 2.75771 | 15090 ft | 376 kts | 108° |
| 2026-05-05 09:38 | 39.26776 | 2.79166 | 15749 ft | 385 kts | 93° |
| 2026-05-05 09:38 | 39.26748 | 2.82641 | 16405 ft | 390 kts | 92° |
| 2026-05-05 09:38 | 39.26809 | 2.86124 | 17036 ft | 397 kts | 86° |
| 2026-05-05 09:38 | 39.27322 | 2.89645 | 17672 ft | 404 kts | 75° |
| 2026-05-05 09:39 | 39.28328 | 2.93048 | 18297 ft | 409 kts | 63° |
| 2026-05-05 09:39 | 39.29725 | 2.96264 | 18842 ft | 413 kts | 59° |
| 2026-05-05 09:39 | 39.31171 | 2.99495 | 19404 ft | 418 kts | 59° |
| 2026-05-05 09:39 | 39.32627 | 3.02773 | 19976 ft | 422 kts | 59° |
| 2026-05-05 09:40 | 39.34088 | 3.06082 | 20556 ft | 427 kts | 60° |
| 2026-05-05 09:40 | 39.35565 | 3.09432 | 21119 ft | 431 kts | 60° |
| 2026-05-05 09:40 | 39.37060 | 3.12817 | 21678 ft | 436 kts | 60° |
| 2026-05-05 09:40 | 39.38572 | 3.16231 | 22229 ft | 440 kts | 60° |
| 2026-05-05 09:41 | 39.40098 | 3.19681 | 22787 ft | 444 kts | 60° |
| 2026-05-05 09:41 | 39.41636 | 3.23167 | 23331 ft | 449 kts | 60° |
| 2026-05-05 09:41 | 39.43189 | 3.26687 | 23809 ft | 453 kts | 60° |
| 2026-05-05 09:41 | 39.44784 | 3.30228 | 24253 ft | 457 kts | 59° |
| 2026-05-05 09:42 | 39.46417 | 3.33773 | 24709 ft | 460 kts | 58° |
| 2026-05-05 09:42 | 39.48075 | 3.37336 | 25141 ft | 464 kts | 58° |
| 2026-05-05 09:42 | 39.49747 | 3.40922 | 25563 ft | 467 kts | 58° |
| 2026-05-05 09:42 | 39.51405 | 3.44490 | 25976 ft | 470 kts | 58° |
| 2026-05-05 09:43 | 39.53090 | 3.48140 | 26389 ft | 474 kts | 58° |
| 2026-05-05 09:43 | 39.54778 | 3.51820 | 26794 ft | 477 kts | 59° |
| 2026-05-05 09:43 | 39.56475 | 3.55535 | 27192 ft | 480 kts | 59° |
| 2026-05-05 09:43 | 39.58178 | 3.59274 | 27590 ft | 484 kts | 59° |
| 2026-05-05 09:44 | 39.59893 | 3.63042 | 27982 ft | 487 kts | 59° |
| 2026-05-05 09:44 | 39.61619 | 3.66837 | 28380 ft | 490 kts | 59° |
| 2026-05-05 09:44 | 39.63358 | 3.70661 | 28757 ft | 494 kts | 59° |
| 2026-05-05 09:44 | 39.65110 | 3.74514 | 29150 ft | 497 kts | 58° |
| 2026-05-05 09:45 | 39.66871 | 3.78386 | 29525 ft | 500 kts | 58° |
| 2026-05-05 09:45 | 39.68645 | 3.82290 | 29899 ft | 504 kts | 58° |
| 2026-05-05 09:45 | 39.70429 | 3.86217 | 30245 ft | 507 kts | 59° |
| 2026-05-05 09:45 | 39.72197 | 3.90125 | 30553 ft | 509 kts | 59° |
| 2026-05-05 09:46 | 39.73992 | 3.94101 | 30868 ft | 512 kts | 59° |
| 2026-05-05 09:46 | 39.75796 | 3.98104 | 31173 ft | 514 kts | 59° |
| 2026-05-05 09:46 | 39.77607 | 4.02121 | 31467 ft | 516 kts | 59° |
| 2026-05-05 09:46 | 39.79424 | 4.06159 | 31825 ft | 517 kts | 59° |
| 2026-05-05 09:47 | 39.81233 | 4.10191 | 32260 ft | 516 kts | 59° |
| 2026-05-05 09:47 | 39.83038 | 4.14221 | 32687 ft | 516 kts | 59° |
| 2026-05-05 09:47 | 39.84840 | 4.18256 | 33125 ft | 515 kts | 60° |
| 2026-05-05 09:47 | 39.86372 | 4.22456 | 33539 ft | 515 kts | 70° |
| 2026-05-05 09:48 | 39.87465 | 4.26883 | 33955 ft | 513 kts | 77° |
| 2026-05-05 09:48 | 39.88384 | 4.31363 | 34327 ft | 512 kts | 77° |
| 2026-05-05 09:48 | 39.89312 | 4.35844 | 34690 ft | 511 kts | 76° |
| 2026-05-05 09:48 | 39.90241 | 4.40309 | 35069 ft | 510 kts | 76° |
| 2026-05-05 09:49 | 39.91166 | 4.44765 | 35424 ft | 510 kts | 76° |
| 2026-05-05 09:49 | 39.92089 | 4.49213 | 35775 ft | 509 kts | 76° |
| 2026-05-05 09:49 | 39.93009 | 4.53667 | 35949 ft | 508 kts | 76° |
| 2026-05-05 09:49 | 39.93909 | 4.58034 | 35988 ft | 501 kts | 76° |
| 2026-05-05 09:50 | 39.95696 | 4.66771 | 35992 ft | 497 kts | 76° |
| 2026-05-05 09:50 | 39.97461 | 4.75561 | 36001 ft | 504 kts | 77° |
| 2026-05-05 09:51 | 39.99228 | 4.84430 | 35993 ft | 506 kts | 77° |
| 2026-05-05 09:51 | 40.00989 | 4.93314 | 35999 ft | 506 kts | 77° |
| 2026-05-05 09:52 | 40.02745 | 5.02215 | 36002 ft | 506 kts | 77° |
| 2026-05-05 09:52 | 40.04484 | 5.11054 | 35999 ft | 506 kts | 77° |
| 2026-05-05 09:53 | 40.06224 | 5.19948 | 35996 ft | 505 kts | 77° |
| 2026-05-05 09:53 | 40.07957 | 5.28843 | 36002 ft | 505 kts | 77° |
| 2026-05-05 09:54 | 40.09681 | 5.37743 | 36001 ft | 506 kts | 77° |
| 2026-05-05 09:54 | 40.11401 | 5.46651 | 36005 ft | 506 kts | 77° |
| 2026-05-05 09:55 | 40.13117 | 5.55564 | 36013 ft | 505 kts | 77° |
| 2026-05-05 09:55 | 40.14813 | 5.64405 | 36017 ft | 505 kts | 77° |
| 2026-05-05 09:56 | 40.16516 | 5.73303 | 36001 ft | 505 kts | 77° |
| 2026-05-05 09:56 | 40.18213 | 5.82206 | 36017 ft | 505 kts | 77° |
| 2026-05-05 09:57 | 40.19907 | 5.91113 | 36025 ft | 505 kts | 77° |
| 2026-05-05 09:57 | 40.21599 | 6.00027 | 36006 ft | 504 kts | 77° |
| 2026-05-05 09:58 | 40.23282 | 6.08923 | 36011 ft | 504 kts | 77° |
| 2026-05-05 09:58 | 40.24963 | 6.17826 | 36020 ft | 504 kts | 77° |
| 2026-05-05 09:59 | 40.26643 | 6.26732 | 36014 ft | 504 kts | 77° |
| 2026-05-05 09:59 | 40.28308 | 6.35583 | 36007 ft | 503 kts | 77° |
| 2026-05-05 10:00 | 40.29981 | 6.44496 | 36017 ft | 503 kts | 77° |
| 2026-05-05 10:00 | 40.31648 | 6.53406 | 36021 ft | 503 kts | 77° |
| 2026-05-05 10:01 | 40.33313 | 6.62314 | 36024 ft | 503 kts | 77° |
| 2026-05-05 10:01 | 40.34974 | 6.71220 | 36023 ft | 503 kts | 77° |
| 2026-05-05 10:02 | 40.36633 | 6.80118 | 36023 ft | 502 kts | 77° |
| 2026-05-05 10:02 | 40.38277 | 6.88956 | 36027 ft | 502 kts | 77° |
| 2026-05-05 10:03 | 40.39926 | 6.97844 | 36031 ft | 501 kts | 77° |
| 2026-05-05 10:03 | 40.41568 | 7.06723 | 36029 ft | 501 kts | 77° |
| 2026-05-05 10:04 | 40.43206 | 7.15588 | 36029 ft | 500 kts | 77° |
| 2026-05-05 10:04 | 40.44843 | 7.24457 | 36030 ft | 499 kts | 77° |
| 2026-05-05 10:05 | 40.46473 | 7.33319 | 36035 ft | 499 kts | 77° |
| 2026-05-05 10:05 | 40.48095 | 7.42181 | 36036 ft | 499 kts | 77° |
| 2026-05-05 10:06 | 40.49709 | 7.51030 | 36035 ft | 498 kts | 77° |
| 2026-05-05 10:06 | 40.51317 | 7.59877 | 36035 ft | 498 kts | 77° |
| 2026-05-05 10:07 | 40.52923 | 7.68732 | 36035 ft | 498 kts | 77° |
| 2026-05-05 10:07 | 40.54521 | 7.77574 | 36036 ft | 497 kts | 77° |
| 2026-05-05 10:08 | 40.56102 | 7.86359 | 36035 ft | 496 kts | 77° |
| 2026-05-05 10:08 | 40.57689 | 7.95197 | 36036 ft | 497 kts | 77° |
| 2026-05-05 10:09 | 40.59274 | 8.04044 | 36036 ft | 496 kts | 77° |
| 2026-05-05 10:09 | 40.60852 | 8.12889 | 36037 ft | 496 kts | 77° |
| 2026-05-05 10:10 | 40.62428 | 8.21733 | 36037 ft | 496 kts | 77° |
| 2026-05-05 10:10 | 40.63738 | 8.29084 | 36030 ft | 496 kts | 77° |
| 2026-05-05 10:11 | 40.65309 | 8.37914 | 36030 ft | 495 kts | 77° |
| 2026-05-05 10:11 | 40.66880 | 8.46753 | 36034 ft | 495 kts | 77° |
| 2026-05-05 10:12 | 40.68446 | 8.55590 | 36032 ft | 495 kts | 77° |
| 2026-05-05 10:12 | 40.69997 | 8.64359 | 36032 ft | 494 kts | 77° |
| 2026-05-05 10:13 | 40.71550 | 8.73188 | 36037 ft | 494 kts | 77° |
| 2026-05-05 10:13 | 40.73096 | 8.82006 | 36038 ft | 494 kts | 77° |
| 2026-05-05 10:14 | 40.74741 | 8.90784 | 36051 ft | 492 kts | 69° |
| 2026-05-05 10:14 | 40.76246 | 8.94800 | 36068 ft | 487 kts | 53° |
| 2026-05-05 10:14 | 40.78423 | 8.98163 | 36072 ft | 478 kts | 37° |
| 2026-05-05 10:15 | 40.81096 | 9.00659 | 36067 ft | 466 kts | 21° |
| 2026-05-05 10:15 | 40.84063 | 9.02220 | 36063 ft | 453 kts | 7° |
| 2026-05-05 10:15 | 40.87121 | 9.02836 | 36054 ft | 439 kts | 354° |
| 2026-05-05 10:15 | 40.90120 | 9.02558 | 36049 ft | 426 kts | 341° |
| 2026-05-05 10:16 | 40.92885 | 9.01490 | 36040 ft | 414 kts | 329° |
| 2026-05-05 10:16 | 40.95457 | 8.99861 | 36032 ft | 410 kts | 326° |
| 2026-05-05 10:16 | 41.00582 | 8.96530 | 36030 ft | 411 kts | 326° |
| 2026-05-05 10:17 | 41.05729 | 8.93205 | 36029 ft | 412 kts | 326° |
| 2026-05-05 10:17 | 41.10884 | 8.89872 | 36028 ft | 413 kts | 326° |
| 2026-05-05 10:18 | 41.16043 | 8.86528 | 36031 ft | 413 kts | 326° |
| 2026-05-05 10:18 | 41.21215 | 8.83157 | 36030 ft | 414 kts | 326° |
| 2026-05-05 10:19 | 41.26390 | 8.79784 | 36035 ft | 414 kts | 326° |
| 2026-05-05 10:19 | 41.31570 | 8.76410 | 36025 ft | 414 kts | 326° |
| 2026-05-05 10:20 | 41.36739 | 8.73024 | 36032 ft | 414 kts | 326° |
| 2026-05-05 10:20 | 41.41875 | 8.69645 | 36030 ft | 414 kts | 326° |
| 2026-05-05 10:21 | 41.47049 | 8.66244 | 36027 ft | 415 kts | 326° |
| 2026-05-05 10:21 | 41.52228 | 8.62842 | 36022 ft | 415 kts | 326° |
| 2026-05-05 10:22 | 41.57407 | 8.59435 | 36023 ft | 415 kts | 326° |
| 2026-05-05 10:22 | 41.62586 | 8.56011 | 36021 ft | 415 kts | 326° |
| 2026-05-05 10:23 | 41.67766 | 8.52583 | 36019 ft | 416 kts | 326° |
| 2026-05-05 10:23 | 41.72922 | 8.49167 | 36020 ft | 416 kts | 326° |
| 2026-05-05 10:24 | 41.78112 | 8.45727 | 36015 ft | 417 kts | 326° |
| 2026-05-05 10:24 | 41.83309 | 8.42274 | 36009 ft | 417 kts | 326° |
| 2026-05-05 10:25 | 41.88508 | 8.38809 | 36006 ft | 417 kts | 326° |
| 2026-05-05 10:25 | 41.93709 | 8.35332 | 36002 ft | 418 kts | 326° |
| 2026-05-05 10:26 | 41.98922 | 8.31846 | 35997 ft | 419 kts | 326° |
| 2026-05-05 10:26 | 42.04139 | 8.28361 | 36001 ft | 419 kts | 326° |
| 2026-05-05 10:27 | 42.09366 | 8.24859 | 35988 ft | 419 kts | 326° |
| 2026-05-05 10:27 | 42.14549 | 8.21376 | 35986 ft | 419 kts | 326° |
| 2026-05-05 10:28 | 42.19765 | 8.17855 | 35984 ft | 420 kts | 326° |
| 2026-05-05 10:28 | 42.24987 | 8.14325 | 35986 ft | 420 kts | 326° |
| 2026-05-05 10:29 | 42.30220 | 8.10786 | 35981 ft | 421 kts | 326° |
| 2026-05-05 10:29 | 42.35453 | 8.07241 | 35981 ft | 421 kts | 326° |
| 2026-05-05 10:30 | 42.40691 | 8.03677 | 35980 ft | 422 kts | 326° |
| 2026-05-05 10:30 | 42.45904 | 8.00121 | 35982 ft | 423 kts | 326° |
| 2026-05-05 10:31 | 42.51169 | 7.96550 | 35984 ft | 423 kts | 326° |
| 2026-05-05 10:31 | 42.56433 | 7.92967 | 35983 ft | 424 kts | 326° |
| 2026-05-05 10:32 | 42.61698 | 7.89354 | 35981 ft | 424 kts | 326° |
| 2026-05-05 10:32 | 42.66969 | 7.85734 | 35978 ft | 424 kts | 326° |
| 2026-05-05 10:33 | 42.72243 | 7.82113 | 35977 ft | 425 kts | 326° |
| 2026-05-05 10:33 | 42.77533 | 7.78489 | 35969 ft | 426 kts | 326° |
| 2026-05-05 10:34 | 42.82797 | 7.74866 | 35973 ft | 427 kts | 326° |
| 2026-05-05 10:34 | 42.88099 | 7.71211 | 35969 ft | 427 kts | 326° |
| 2026-05-05 10:35 | 42.93395 | 7.67531 | 35965 ft | 427 kts | 326° |
| 2026-05-05 10:35 | 42.98702 | 7.63840 | 35964 ft | 428 kts | 326° |
| 2026-05-05 10:36 | 43.04026 | 7.60158 | 35967 ft | 429 kts | 326° |
| 2026-05-05 10:36 | 43.09354 | 7.56460 | 35968 ft | 429 kts | 326° |
| 2026-05-05 10:37 | 43.14674 | 7.52745 | 35964 ft | 430 kts | 326° |
| 2026-05-05 10:37 | 43.19993 | 7.49037 | 35960 ft | 429 kts | 326° |
| 2026-05-05 10:38 | 43.25280 | 7.45338 | 35960 ft | 429 kts | 326° |
| 2026-05-05 10:38 | 43.30599 | 7.41593 | 35962 ft | 430 kts | 326° |
| 2026-05-05 10:39 | 43.35597 | 7.38079 | 35968 ft | 431 kts | 326° |
| 2026-05-05 10:39 | 43.40938 | 7.34315 | 35969 ft | 431 kts | 326° |
| 2026-05-05 10:40 | 43.46270 | 7.30550 | 35974 ft | 431 kts | 326° |
| 2026-05-05 10:40 | 43.51616 | 7.26785 | 35970 ft | 432 kts | 326° |
| 2026-05-05 10:41 | 43.56966 | 7.23004 | 35974 ft | 432 kts | 326° |
| 2026-05-05 10:41 | 43.62306 | 7.19206 | 35971 ft | 432 kts | 326° |
| 2026-05-05 10:42 | 43.70294 | 7.13523 | 35972 ft | 432 kts | 326° |
| 2026-05-05 10:43 | 43.75648 | 7.09704 | 35973 ft | 433 kts | 326° |
| 2026-05-05 10:43 | 43.80996 | 7.05888 | 35971 ft | 432 kts | 325° |
| 2026-05-05 10:44 | 43.86329 | 7.02061 | 35967 ft | 432 kts | 325° |
| 2026-05-05 10:44 | 43.91672 | 6.98229 | 35961 ft | 432 kts | 326° |
| 2026-05-05 10:45 | 43.96986 | 6.94417 | 35967 ft | 433 kts | 325° |
| 2026-05-05 10:45 | 44.02335 | 6.90570 | 35965 ft | 433 kts | 325° |
| 2026-05-05 10:46 | 44.07688 | 6.86701 | 35964 ft | 434 kts | 325° |
| 2026-05-05 10:46 | 44.13046 | 6.82817 | 35963 ft | 434 kts | 325° |
| 2026-05-05 10:47 | 44.18399 | 6.78934 | 35958 ft | 434 kts | 325° |
| 2026-05-05 10:47 | 44.23752 | 6.75048 | 35954 ft | 434 kts | 325° |
| 2026-05-05 10:48 | 44.29103 | 6.71153 | 35953 ft | 433 kts | 325° |
| 2026-05-05 10:48 | 44.34455 | 6.67248 | 35980 ft | 434 kts | 325° |
| 2026-05-05 10:49 | 44.39767 | 6.63360 | 35971 ft | 435 kts | 324° |
| 2026-05-05 10:49 | 44.45439 | 6.60194 | 35952 ft | 450 kts | 343° |
| 2026-05-05 10:49 | 44.48586 | 6.59746 | 35952 ft | 460 kts | 355° |
| 2026-05-05 10:50 | 44.51791 | 6.60175 | 35947 ft | 467 kts | 7° |
| 2026-05-05 10:50 | 44.54919 | 6.61496 | 35939 ft | 473 kts | 20° |
| 2026-05-05 10:50 | 44.57897 | 6.63510 | 35937 ft | 475 kts | 24° |
| 2026-05-05 10:51 | 44.63819 | 6.67660 | 35944 ft | 476 kts | 24° |
| 2026-05-05 10:51 | 44.69745 | 6.71816 | 35952 ft | 476 kts | 24° |
| 2026-05-05 10:52 | 44.75680 | 6.75964 | 35956 ft | 474 kts | 21° |
| 2026-05-05 10:52 | 44.81954 | 6.78453 | 35972 ft | 466 kts | 2° |
| 2026-05-05 10:53 | 44.88309 | 6.78499 | 35973 ft | 458 kts | 352° |
| 2026-05-05 10:53 | 44.94671 | 6.78069 | 35970 ft | 457 kts | 352° |
| 2026-05-05 10:54 | 45.01076 | 6.77650 | 35987 ft | 466 kts | 352° |
| 2026-05-05 10:54 | 45.07596 | 6.77224 | 35982 ft | 469 kts | 352° |
| 2026-05-05 10:55 | 45.14129 | 6.76802 | 35980 ft | 470 kts | 352° |
| 2026-05-05 10:55 | 45.20666 | 6.76376 | 35972 ft | 470 kts | 352° |
| 2026-05-05 10:56 | 45.27158 | 6.75938 | 35969 ft | 470 kts | 352° |
| 2026-05-05 10:56 | 45.33676 | 6.75368 | 35956 ft | 466 kts | 346° |
| 2026-05-05 10:57 | 45.40021 | 6.73665 | 35954 ft | 464 kts | 343° |
| 2026-05-05 10:57 | 45.46355 | 6.71938 | 35945 ft | 463 kts | 344° |
| 2026-05-05 10:58 | 45.52688 | 6.70224 | 35940 ft | 463 kts | 344° |
| 2026-05-05 10:58 | 45.59026 | 6.68547 | 35935 ft | 464 kts | 345° |
| 2026-05-05 10:59 | 45.65377 | 6.66919 | 35924 ft | 463 kts | 345° |
| 2026-05-05 10:59 | 45.71683 | 6.65308 | 35925 ft | 463 kts | 345° |
| 2026-05-05 11:00 | 45.78023 | 6.63652 | 35919 ft | 462 kts | 345° |
| 2026-05-05 11:00 | 45.84350 | 6.61927 | 35918 ft | 463 kts | 345° |
| 2026-05-05 11:01 | 45.90676 | 6.60195 | 35920 ft | 463 kts | 345° |
| 2026-05-05 11:01 | 45.97013 | 6.58467 | 35919 ft | 464 kts | 345° |
| 2026-05-05 11:02 | 46.03243 | 6.56318 | 35916 ft | 454 kts | 329° |
| 2026-05-05 11:02 | 46.05861 | 6.53906 | 35918 ft | 442 kts | 312° |
| 2026-05-05 11:02 | 46.07821 | 6.50672 | 35918 ft | 430 kts | 299° |
| 2026-05-05 11:03 | 46.11190 | 6.43539 | 35920 ft | 431 kts | 298° |
| 2026-05-05 11:03 | 46.14560 | 6.36378 | 35927 ft | 432 kts | 299° |
| 2026-05-05 11:04 | 46.18645 | 6.29992 | 35921 ft | 449 kts | 328° |
| 2026-05-05 11:04 | 46.21622 | 6.28523 | 35920 ft | 459 kts | 349° |
| 2026-05-05 11:04 | 46.24820 | 6.28663 | 35916 ft | 465 kts | 12° |
| 2026-05-05 11:04 | 46.27805 | 6.30416 | 35906 ft | 466 kts | 34° |
| 2026-05-05 11:05 | 46.30180 | 6.33558 | 35898 ft | 462 kts | 56° |
| 2026-05-05 11:05 | 46.33223 | 6.41688 | 35894 ft | 461 kts | 66° |
| 2026-05-05 11:06 | 46.36389 | 6.49788 | 35878 ft | 467 kts | 51° |
| 2026-05-05 11:06 | 46.40919 | 6.56561 | 35877 ft | 469 kts | 47° |
| 2026-05-05 11:07 | 46.45384 | 6.63386 | 35876 ft | 470 kts | 48° |
| 2026-05-05 11:07 | 46.49856 | 6.70295 | 35878 ft | 469 kts | 48° |
| 2026-05-05 11:07 | 46.52086 | 6.73741 | 35442 ft | 467 kts | 48° |
| 2026-05-05 11:08 | 46.54294 | 6.77167 | 34975 ft | 463 kts | 48° |
| 2026-05-05 11:08 | 46.56487 | 6.80562 | 34531 ft | 459 kts | 48° |
| 2026-05-05 11:08 | 46.58665 | 6.83922 | 34096 ft | 455 kts | 48° |
| 2026-05-05 11:08 | 46.60829 | 6.87249 | 33637 ft | 451 kts | 48° |
| 2026-05-05 11:09 | 46.62981 | 6.90541 | 33173 ft | 447 kts | 48° |
| 2026-05-05 11:09 | 46.65117 | 6.93789 | 32724 ft | 442 kts | 48° |
| 2026-05-05 11:09 | 46.67280 | 6.96935 | 32278 ft | 438 kts | 41° |
| 2026-05-05 11:09 | 46.69865 | 6.99247 | 31857 ft | 436 kts | 22° |
| 2026-05-05 11:10 | 46.72784 | 7.00347 | 31253 ft | 436 kts | 6° |
| 2026-05-05 11:10 | 46.75819 | 7.00699 | 30589 ft | 438 kts | 2° |
| 2026-05-05 11:10 | 46.78850 | 7.00354 | 29812 ft | 440 kts | 346° |
| 2026-05-05 11:10 | 46.81735 | 6.98792 | 28674 ft | 446 kts | 328° |
| 2026-05-05 11:11 | 46.84208 | 6.96062 | 27587 ft | 448 kts | 311° |
| 2026-05-05 11:11 | 46.86059 | 6.92413 | 26538 ft | 447 kts | 295° |
| 2026-05-05 11:11 | 46.86863 | 6.89654 | 25859 ft | 445 kts | 284° |
| 2026-05-05 11:11 | 46.87369 | 6.83787 | 24567 ft | 439 kts | 263° |
| 2026-05-05 11:12 | 46.86761 | 6.79454 | 23627 ft | 434 kts | 247° |
| 2026-05-05 11:12 | 46.85377 | 6.75573 | 22551 ft | 430 kts | 232° |
| 2026-05-05 11:12 | 46.83355 | 6.72401 | 21481 ft | 426 kts | 217° |
| 2026-05-05 11:12 | 46.80858 | 6.70120 | 20455 ft | 423 kts | 206° |
| 2026-05-05 11:13 | 46.79125 | 6.68813 | 19795 ft | 423 kts | 206° |
| 2026-05-05 11:13 | 46.76528 | 6.66870 | 18807 ft | 415 kts | 206° |
| 2026-05-05 11:13 | 46.73995 | 6.64979 | 17820 ft | 402 kts | 206° |
| 2026-05-05 11:13 | 46.71540 | 6.63145 | 16761 ft | 391 kts | 206° |
| 2026-05-05 11:14 | 46.69125 | 6.61343 | 15758 ft | 392 kts | 207° |
| 2026-05-05 11:14 | 46.66696 | 6.59531 | 14871 ft | 391 kts | 207° |
| 2026-05-05 11:14 | 46.64287 | 6.57740 | 14024 ft | 386 kts | 207° |
| 2026-05-05 11:14 | 46.61908 | 6.55972 | 13129 ft | 383 kts | 207° |
| 2026-05-05 11:15 | 46.59562 | 6.54226 | 12082 ft | 374 kts | 207° |
| 2026-05-05 11:15 | 46.57279 | 6.52529 | 11084 ft | 365 kts | 207° |
| 2026-05-05 11:15 | 46.55029 | 6.50857 | 10108 ft | 361 kts | 207° |
| 2026-05-05 11:15 | 46.52815 | 6.49214 | 9084 ft | 353 kts | 207° |
| 2026-05-05 11:16 | 46.50646 | 6.47612 | 7988 ft | 349 kts | 207° |
| 2026-05-05 11:16 | 46.48489 | 6.46019 | 7324 ft | 346 kts | 206° |
| 2026-05-05 11:16 | 46.46443 | 6.44382 | 7093 ft | 325 kts | 216° |
| 2026-05-05 11:16 | 46.44867 | 6.42205 | 6903 ft | 304 kts | 227° |
| 2026-05-05 11:17 | 46.43485 | 6.39981 | 6555 ft | 291 kts | 226° |
| 2026-05-05 11:17 | 46.42119 | 6.37915 | 6191 ft | 276 kts | 224° |
| 2026-05-05 11:17 | 46.40810 | 6.35987 | 5830 ft | 261 kts | 224° |
| 2026-05-05 11:17 | 46.39572 | 6.34157 | 5490 ft | 248 kts | 224° |
| 2026-05-05 11:18 | 46.38389 | 6.32405 | 5167 ft | 237 kts | 224° |
| 2026-05-05 11:18 | 46.37263 | 6.30736 | 4865 ft | 232 kts | 224° |
| 2026-05-05 11:18 | 46.36138 | 6.29073 | 4556 ft | 223 kts | 224° |
| 2026-05-05 11:18 | 46.35078 | 6.27505 | 4263 ft | 218 kts | 224° |
| 2026-05-05 11:19 | 46.34043 | 6.25976 | 3973 ft | 207 kts | 224° |
| 2026-05-05 11:19 | 46.33065 | 6.24531 | 3707 ft | 196 kts | 223° |
| 2026-05-05 11:19 | 46.32130 | 6.23152 | 3464 ft | 187 kts | 224° |
| 2026-05-05 11:19 | 46.31249 | 6.21851 | 3217 ft | 176 kts | 224° |
| 2026-05-05 11:20 | 46.30418 | 6.20626 | 2984 ft | 166 kts | 223° |
| 2026-05-05 11:20 | 46.29643 | 6.19484 | 2762 ft | 150 kts | 223° |
| 2026-05-05 11:20 | 46.28950 | 6.18463 | 2549 ft | 136 kts | 225° |
| 2026-05-05 11:20 | 46.28304 | 6.17513 | 2357 ft | 131 kts | 225° |
| 2026-05-05 11:21 | 46.27670 | 6.16580 | 2171 ft | 130 kts | 226° |
| 2026-05-05 11:21 | 46.27042 | 6.15656 | 1994 ft | 129 kts | 226° |
| 2026-05-05 11:21 | 46.26414 | 6.14735 | 1822 ft | 127 kts | 225° |
| 2026-05-05 11:21 | 46.25789 | 6.13837 | 1652 ft | 127 kts | 225° |
| 2026-05-05 11:22 | 46.25177 | 6.12921 | 1487 ft | 126 kts | 228° |
| 2026-05-05 11:22 | 46.24572 | 6.12019 | 1383 ft | 118 kts | 226° |
| 2026-05-05 11:22 | 46.24086 | 6.11305 | 1375 ft | 77 kts | 225° |
| 2026-05-05 11:22 | 46.23832 | 6.10932 | 1379 ft | 27 kts | 225° |
| 2026-05-05 11:23 | 46.23698 | 6.10788 | 1380 ft | 23 kts | 206° |
| 2026-05-05 11:23 | 46.23549 | 6.10712 | 1384 ft | 21 kts | 194° |
| 2026-05-05 11:23 | 46.23420 | 6.10658 | 1401 ft | 18 kts | 206° |
| 2026-05-05 11:23 | 46.23327 | 6.10539 | 1397 ft | 19 kts | 226° |
| 2026-05-05 11:24 | 46.23227 | 6.10391 | 1396 ft | 21 kts | 226° |
| 2026-05-05 11:24 | 46.23148 | 6.10274 | 1394 ft | 10 kts | 221° |
| 2026-05-05 11:24 | 46.23079 | 6.10265 | 1393 ft | 11 kts | 181° |
| 2026-05-05 11:24 | 46.23047 | 6.10265 | 1393 ft | 0 kts | 180° |